Time;durP1;ratioP1;P1;durP2;ratioP2;P2;SDS_P1;SDS_P2;PMS_P1;PMS_P2;Temp;Humidity;BMP_temperature;BMP_pressure;BME280_temperature;BME280_humidity;BME280_pressure;Samples;Min_cycle;Max_cycle;Signal;HPM_P1;HPM_P2
2023/07/04 00:01:32;;;;;;;13.30;6.80;;;;;;;14.45;69.64;100056.82;102550;279;105829;-57
2023/07/04 00:04:11;;;;;;;10.40;7.00;;;;;;;14.49;69.51;100062.34;102556;279;112717;-57
2023/07/04 00:06:48;;;;;;;9.50;6.90;;;;;;;14.52;69.48;100065.91;102478;279;96217;-58
2023/07/04 00:09:29;;;;;;;15.40;7.30;;;;;;;14.58;69.49;100072.95;102505;275;97395;-55
2023/07/04 00:12:15;;;;;;;12.30;7.10;;;;;;;14.63;69.66;100080.41;102482;279;120950;-55
2023/07/04 00:14:51;;;;;;;13.40;7.40;;;;;;;14.70;69.58;100076.98;102573;279;105461;-57
2023/07/04 00:17:29;;;;;;;13.70;7.60;;;;;;;14.78;69.54;100076.92;102538;279;114231;-57
2023/07/04 00:20:11;;;;;;;13.70;7.50;;;;;;;14.83;69.40;100075.44;102533;279;94882;-55
2023/07/04 00:22:56;;;;;;;14.30;7.50;;;;;;;14.81;69.11;100078.09;102576;279;97120;-55
2023/07/04 00:25:38;;;;;;;14.20;7.40;;;;;;;14.83;69.11;100080.09;102590;279;120662;-57
2023/07/04 00:28:15;;;;;;;10.70;7.00;;;;;;;14.86;69.21;100083.40;102504;279;105275;-58
2023/07/04 00:30:54;;;;;;;12.70;6.50;;;;;;;14.88;69.22;100083.59;102588;279;114371;-57
2023/07/04 00:33:34;;;;;;;13.70;7.10;;;;;;;14.89;69.22;100083.88;102457;279;95753;-57
2023/07/04 00:36:16;;;;;;;13.30;6.90;;;;;;;14.89;69.49;100086.61;102517;267;96063;-57
2023/07/04 00:39:04;;;;;;;13.90;7.30;;;;;;;14.93;69.59;100088.19;102560;278;121168;-55
2023/07/04 00:41:42;;;;;;;11.80;7.70;;;;;;;14.97;69.56;100092.79;102500;279;105555;-55
2023/07/04 00:44:30;;;;;;;13.00;7.40;;;;;;;15.03;69.89;100094.73;102561;279;114503;-58
2023/07/04 00:47:21;;;;;;;13.60;7.60;;;;;;;15.10;69.76;100095.41;102366;280;95140;-57
2023/07/04 00:50:02;;;;;;;10.80;6.50;;;;;;;15.13;70.09;100090.39;102372;280;97580;-57
2023/07/04 00:52:40;;;;;;;15.10;7.00;;;;;;;15.19;69.88;100094.88;102327;280;119312;-57
2023/07/04 00:55:30;;;;;;;10.60;6.70;;;;;;;15.23;69.97;100092.36;102379;280;103208;-55
2023/07/04 00:58:07;;;;;;;15.20;7.30;;;;;;;15.26;69.89;100093.17;102334;280;114641;-56
2023/07/04 01:00:44;;;;;;;11.70;7.20;;;;;;;15.30;69.73;100095.20;102427;280;93016;-55
2023/07/04 01:03:21;;;;;;;15.60;7.90;;;;;;;15.33;69.43;100093.63;102420;280;96889;-55
2023/07/04 01:06:04;;;;;;;11.00;6.90;;;;;;;15.35;69.40;100092.36;102457;280;118248;-57
2023/07/04 01:08:47;;;;;;;13.80;6.70;;;;;;;15.33;69.40;100089.20;102421;280;105855;-56
2023/07/04 01:11:30;;;;;;;13.40;7.30;;;;;;;15.30;69.41;100087.80;102479;281;114969;-57
2023/07/04 01:14:19;;;;;;;11.70;7.20;;;;;;;15.28;69.50;100091.55;102460;280;96367;-55
2023/07/04 01:16:58;;;;;;;14.30;7.00;;;;;;;15.28;69.57;100088.41;102433;281;97520;-56
2023/07/04 01:19:40;;;;;;;13.90;7.70;;;;;;;15.30;69.74;100085.07;102420;280;121694;-58
2023/07/04 01:22:27;;;;;;;13.90;7.30;;;;;;;15.30;69.90;100086.60;102368;280;105372;-57
2023/07/04 01:25:20;;;;;;;9.60;6.40;;;;;;;15.32;69.75;100088.37;102411;280;113559;-56
2023/07/04 01:28:04;;;;;;;10.30;6.80;;;;;;;15.32;69.81;100090.55;102348;280;93762;-56
2023/07/04 01:30:48;;;;;;;13.80;7.60;;;;;;;15.31;69.68;100096.59;102410;280;96817;-57
2023/07/04 01:33:26;;;;;;;13.20;6.80;;;;;;;15.28;69.74;100095.48;102328;280;120847;-57
2023/07/04 01:36:08;;;;;;;11.50;6.70;;;;;;;15.27;69.73;100095.60;102380;280;105534;-57
2023/07/04 01:38:46;;;;;;;15.70;7.70;;;;;;;15.28;69.65;100093.31;102393;280;113983;-54
2023/07/04 01:41:24;;;;;;;13.00;7.00;;;;;;;15.32;69.52;100091.09;102307;281;96525;-55
2023/07/04 01:44:05;;;;;;;13.70;6.80;;;;;;;15.37;69.39;100097.11;102435;280;98219;-55
2023/07/04 01:46:51;;;;;;;14.40;7.30;;;;;;;15.41;69.43;100098.35;102460;279;120924;-55
2023/07/04 01:49:28;;;;;;;11.90;6.70;;;;;;;15.47;69.30;100100.44;102528;279;104749;-56
2023/07/04 01:52:06;;;;;;;13.20;7.80;;;;;;;15.50;68.97;100105.95;102490;279;114106;-56
2023/07/04 01:54:41;;;;;;;12.90;7.00;;;;;;;15.53;68.90;100106.20;102530;278;94355;-58
2023/07/04 01:57:14;;;;;;;;;;;;;;;15.57;68.50;100109.58;102526;278;97475;-57
2023/07/04 01:59:54;;;;;;;10.80;6.50;;;;;;;15.59;68.41;100110.90;102523;278;120846;-55
2023/07/04 02:02:33;;;;;;;11.70;7.50;;;;;;;15.62;68.29;100110.22;102509;279;106062;-54
2023/07/04 02:05:11;;;;;;;14.50;7.30;;;;;;;15.67;67.97;100109.03;102538;279;114470;-55
2023/07/04 02:07:55;;;;;;;12.20;7.00;;;;;;;15.68;67.65;100104.08;102333;278;94244;-55
2023/07/04 02:10:33;;;;;;;15.20;8.40;;;;;;;15.71;67.30;100105.08;102580;278;99264;-56
2023/07/04 02:13:13;;;;;;;14.60;7.10;;;;;;;15.72;66.97;100102.17;102523;275;121363;-57
2023/07/04 02:16:00;;;;;;;13.00;7.60;;;;;;;15.73;66.60;100105.81;102495;278;106162;-55
2023/07/04 02:18:38;;;;;;;12.20;7.10;;;;;;;15.76;66.41;100108.29;102522;278;114476;-55
2023/07/04 02:21:18;;;;;;;13.80;7.80;;;;;;;15.78;66.30;100106.45;102420;279;95743;-56
2023/07/04 02:23:55;;;;;;;10.20;6.60;;;;;;;15.80;65.97;100103.58;102428;278;98285;-57
2023/07/04 02:26:32;;;;;;;10.20;6.90;;;;;;;15.81;65.90;100104.77;102467;278;120142;-56
2023/07/04 02:29:13;;;;;;;15.70;7.70;;;;;;;15.83;65.77;100103.45;102510;278;104770;-56
2023/07/04 02:31:49;;;;;;;13.10;7.30;;;;;;;15.83;65.79;100102.16;102516;278;114567;-55
2023/07/04 02:34:27;;;;;;;10.50;6.40;;;;;;;15.82;65.55;100103.77;102551;278;94648;-56
2023/07/04 02:37:06;;;;;;;11.10;6.70;;;;;;;15.80;65.55;100103.66;102485;278;98185;-57
2023/07/04 02:39:45;;;;;;;15.80;7.90;;;;;;;15.78;65.57;100102.72;102556;278;119478;-55
2023/07/04 02:42:23;;;;;;;11.60;7.00;;;;;;;15.71;65.46;100105.92;102567;278;105568;-55
2023/07/04 02:45:06;;;;;;;12.80;7.60;;;;;;;15.66;65.73;100106.62;102530;278;113870;-55
2023/07/04 02:47:48;;;;;;;12.60;6.80;;;;;;;15.58;65.73;100106.29;102564;278;97146;-55
2023/07/04 02:50:23;;;;;;;10.70;6.60;;;;;;;15.49;65.99;100107.45;102533;278;95786;-57
2023/07/04 02:53:01;;;;;;;14.00;7.00;;;;;;;15.44;66.21;100106.48;102529;279;119620;-56
2023/07/04 02:55:42;;;;;;;10.30;7.00;;;;;;;15.41;66.41;100106.90;102524;278;105811;-57
2023/07/04 02:58:22;;;;;;;12.60;7.60;;;;;;;15.42;66.37;100106.77;102510;278;113629;-59
2023/07/04 03:00:58;;;;;;;11.40;7.40;;;;;;;15.40;66.33;100108.67;102556;278;93403;-55
2023/07/04 03:03:37;;;;;;;11.30;7.50;;;;;;;15.38;66.40;100109.61;102583;275;98134;-56
2023/07/04 03:06:15;;;;;;;13.90;8.10;;;;;;;15.35;66.51;100113.05;102479;278;120167;-57
2023/07/04 03:09:01;;;;;;;12.30;7.80;;;;;;;15.32;66.51;100114.41;102514;279;105061;-56
2023/07/04 03:11:37;;;;;;;15.40;7.40;;;;;;;15.34;66.69;100112.20;102498;267;113549;-55
2023/07/04 03:14:12;;;;;;;;;;;;;;;15.43;66.82;100117.43;102543;278;96828;-56
2023/07/04 03:16:48;;;;;;;10.10;6.80;;;;;;;15.64;66.83;100117.83;102528;278;97885;-58
2023/07/04 03:19:23;;;;;;;15.10;7.00;;;;;;;15.82;66.86;100116.17;102517;279;119177;-57
2023/07/04 03:22:03;;;;;;;13.60;8.00;;;;;;;15.91;66.88;100121.45;102575;279;105102;-56
2023/07/04 03:24:45;;;;;;;11.40;7.00;;;;;;;15.93;66.77;100126.73;102533;279;114291;-57
2023/07/04 03:27:28;;;;;;;11.10;7.30;;;;;;;15.91;66.80;100127.89;102492;279;94618;-57
2023/07/04 03:30:04;;;;;;;11.00;8.00;;;;;;;15.92;67.05;100130.23;102542;279;97599;-57
2023/07/04 03:32:42;;;;;;;12.70;6.90;;;;;;;16.02;67.09;100130.60;102504;279;119090;-56
2023/07/04 03:35:18;;;;;;;10.90;7.50;;;;;;;16.12;67.04;100124.14;102549;279;103943;-55
2023/07/04 03:37:54;;;;;;;12.40;7.30;;;;;;;16.18;67.03;100128.48;102484;279;113859;-55
2023/07/04 03:40:35;;;;;;;12.70;7.60;;;;;;;16.24;67.27;100127.35;102507;279;96405;-57
2023/07/04 03:43:13;;;;;;;11.30;7.40;;;;;;;16.61;67.32;100121.27;101992;279;97183;-56
2023/07/04 03:45:52;;;;;;;14.40;6.90;;;;;;;16.92;66.59;100115.29;102516;279;119892;-55
2023/07/04 03:48:33;;;;;;;10.40;6.70;;;;;;;16.90;66.52;100116.42;102514;279;105045;-55
2023/07/04 03:51:10;;;;;;;14.00;7.40;;;;;;;16.92;66.63;100120.19;102490;279;114160;-56
2023/07/04 03:53:53;;;;;;;13.00;7.70;;;;;;;16.91;66.40;100118.47;102484;279;94927;-55
2023/07/04 03:56:33;;;;;;;10.70;6.70;;;;;;;16.99;66.29;100118.27;102551;279;97510;-55
2023/07/04 03:59:13;;;;;;;10.50;7.00;;;;;;;17.00;66.39;100118.42;102484;279;119683;-56
2023/07/04 04:01:49;;;;;;;9.90;6.70;;;;;;;17.05;66.42;100118.27;102509;279;105855;-56
2023/07/04 04:04:25;;;;;;;11.30;7.00;;;;;;;17.28;66.47;100113.64;102497;279;115190;-58
2023/07/04 04:07:02;;;;;;;13.60;7.50;;;;;;;18.63;66.45;100111.70;102540;279;96443;-57
2023/07/04 04:09:37;;;;;;;10.40;6.30;;;;;;;20.34;64.14;100106.03;102585;279;97299;-57
2023/07/04 04:12:13;;;;;;;12.10;6.70;;;;;;;20.22;62.21;100103.27;102511;279;119224;-57
2023/07/04 04:14:52;;;;;;;12.00;6.90;;;;;;;19.63;62.03;100110.63;102584;279;105225;-57
2023/07/04 04:17:26;;;;;;;13.10;8.20;;;;;;;19.62;61.95;100110.96;102527;279;113588;-57
2023/07/04 04:20:07;;;;;;;11.40;7.20;;;;;;;21.13;60.98;100104.51;102502;279;94596;-56
2023/07/04 04:22:48;;;;;;;11.60;6.80;;;;;;;22.45;59.14;100099.20;102490;279;97784;-57
2023/07/04 04:25:38;;;;;;;12.10;7.10;;;;;;;23.62;57.48;100102.70;102537;279;120185;-56
2023/07/04 04:28:15;;;;;;;11.20;6.50;;;;;;;23.86;55.65;100110.42;102530;279;104217;-56
2023/07/04 04:30:57;;;;;;;12.50;6.60;;;;;;;23.49;54.91;100111.19;102535;279;113166;-56
2023/07/04 04:33:36;;;;;;;10.10;6.10;;;;;;;23.28;54.27;100111.55;102369;279;94027;-57
2023/07/04 04:36:17;;;;;;;11.20;6.50;;;;;;;23.17;53.56;100112.23;102506;279;97664;-57
2023/07/04 04:38:54;;;;;;;10.70;5.80;;;;;;;22.67;53.36;100119.33;102568;279;120927;-56
2023/07/04 04:41:32;;;;;;;11.10;6.50;;;;;;;22.36;53.29;100122.43;102514;279;105036;-56
2023/07/04 04:44:11;;;;;;;9.90;6.20;;;;;;;22.14;53.42;100130.41;102519;279;112791;-56
2023/07/04 04:46:48;;;;;;;10.00;6.30;;;;;;;22.07;53.39;100140.25;102500;279;94917;-56
2023/07/04 04:49:27;;;;;;;10.40;6.40;;;;;;;21.98;53.25;100139.83;102575;279;96400;-56
2023/07/04 04:52:06;;;;;;;13.40;6.50;;;;;;;21.84;53.30;100142.45;102537;279;120286;-56
2023/07/04 04:54:47;;;;;;;11.20;6.40;;;;;;;22.45;53.54;100143.52;102548;279;106275;-55
2023/07/04 04:57:23;;;;;;;14.70;6.70;;;;;;;22.71;52.59;100142.86;102535;279;113639;-56
2023/07/04 05:00:05;;;;;;;16.40;6.30;;;;;;;22.33;52.24;100145.16;102545;279;94039;-56
2023/07/04 05:02:46;;;;;;;12.30;6.60;;;;;;;22.02;52.30;100146.79;102548;279;97824;-55
2023/07/04 05:05:28;;;;;;;11.20;6.90;;;;;;;21.89;52.38;100145.97;102544;279;120952;-57
2023/07/04 05:08:05;;;;;;;12.00;6.30;;;;;;;21.86;52.21;100150.17;102526;279;105270;-58
2023/07/04 05:10:44;;;;;;;11.30;7.10;;;;;;;21.62;52.57;100153.95;102507;279;115169;-56
2023/07/04 05:13:24;;;;;;;11.90;6.20;;;;;;;22.23;53.10;100158.27;102493;279;93525;-56
2023/07/04 05:16:11;;;;;;;12.00;6.20;;;;;;;22.60;52.09;100163.60;102554;279;97553;-55
2023/07/04 05:18:49;;;;;;;12.60;6.20;;;;;;;22.25;52.21;100167.38;102552;279;121641;-56
2023/07/04 05:21:26;;;;;;;10.50;6.30;;;;;;;22.61;52.41;100165.80;102552;279;104369;-56
2023/07/04 05:24:06;;;;;;;12.80;6.10;;;;;;;25.23;51.33;100162.59;102552;279;113414;-57
2023/07/04 05:26:42;;;;;;;10.90;6.60;;;;;;;27.57;48.70;100162.32;102500;278;94303;-56
2023/07/04 05:29:20;;;;;;;11.50;6.40;;;;;;;28.35;46.31;100159.92;102526;279;97803;-57
2023/07/04 05:31:56;;;;;;;10.00;6.20;;;;;;;27.62;45.16;100160.66;102401;280;123018;-56
2023/07/04 05:34:33;;;;;;;8.70;6.00;;;;;;;26.46;45.11;100168.58;102598;279;105711;-56
2023/07/04 05:37:12;;;;;;;11.40;6.10;;;;;;;27.51;45.33;100165.29;102490;278;112563;-56
2023/07/04 05:39:56;;;;;;;9.40;5.80;;;;;;;29.38;43.58;100164.79;102609;279;93174;-56
2023/07/04 05:42:37;;;;;;;9.30;5.60;;;;;;;29.78;41.69;100168.19;102571;278;95813;-55
2023/07/04 05:45:17;;;;;;;;;;;;;;;29.53;40.78;100174.15;102567;279;122221;-56
2023/07/04 05:47:59;;;;;;;10.80;6.40;;;;;;;29.46;40.47;100174.73;102371;278;104217;-56
2023/07/04 05:50:50;;;;;;;9.90;5.50;;;;;;;29.85;39.64;100171.65;102566;278;113994;-57
2023/07/04 05:53:33;;;;;;;10.50;6.20;;;;;;;30.83;38.96;100166.73;102543;279;94545;-58
2023/07/04 05:56:24;;;;;;;11.30;6.30;;;;;;;31.95;37.63;100165.69;102514;278;98100;-56
2023/07/04 05:59:03;;;;;;;9.80;5.60;;;;;;;32.91;36.09;100164.40;102518;279;120109;-56
2023/07/04 06:01:41;;;;;;;8.70;5.30;;;;;;;33.56;35.21;100165.55;102524;278;104693;-56
2023/07/04 06:04:20;;;;;;;8.10;5.40;;;;;;;34.36;33.38;100160.08;102541;278;114250;-58
2023/07/04 06:06:58;;;;;;;9.50;5.80;;;;;;;34.76;32.99;100156.57;102510;279;95021;-57
2023/07/04 06:09:40;;;;;;;9.10;6.00;;;;;;;35.12;31.96;100160.75;102548;278;98089;-56
2023/07/04 06:12:16;;;;;;;12.20;4.90;;;;;;;35.34;31.25;100159.28;102527;278;120243;-56
2023/07/04 06:14:53;;;;;;;8.80;4.90;;;;;;;35.89;30.27;100156.38;102603;278;106471;-57
2023/07/04 06:17:30;;;;;;;9.00;5.20;;;;;;;36.01;29.47;100158.33;102509;278;114772;-57
2023/07/04 06:20:09;;;;;;;6.60;4.90;;;;;;;36.27;28.94;100159.02;102528;278;93827;-56
2023/07/04 06:22:47;;;;;;;8.20;4.70;;;;;;;36.58;27.93;100163.20;102529;279;98675;-55
2023/07/04 06:25:31;;;;;;;7.20;5.10;;;;;;;36.87;27.68;100157.05;102607;279;121049;-56
2023/07/04 06:28:09;;;;;;;8.80;4.40;;;;;;;37.11;26.85;100157.42;102555;278;105223;-56
2023/07/04 06:30:46;;;;;;;8.80;4.50;;;;;;;37.08;26.77;100155.98;102535;279;113594;-58
2023/07/04 06:33:26;;;;;;;6.80;4.60;;;;;;;37.54;25.90;100161.87;102511;278;95049;-58
2023/07/04 06:36:12;;;;;;;8.60;4.90;;;;;;;37.90;26.01;100162.91;102532;278;96710;-58
2023/07/04 06:38:48;;;;;;;7.20;4.90;;;;;;;38.10;25.17;100161.55;102543;278;120608;-56
2023/07/04 06:41:26;;;;;;;9.30;4.40;;;;;;;38.40;24.61;100160.26;102495;278;106123;-56
2023/07/04 06:44:01;;;;;;;10.60;4.80;;;;;;;38.71;24.44;100161.17;102537;278;115072;-57
2023/07/04 06:46:44;;;;;;;7.60;4.80;;;;;;;38.73;24.66;100163.53;102472;278;94566;-57
2023/07/04 06:49:21;;;;;;;8.30;4.90;;;;;;;39.02;24.00;100165.69;102384;279;97571;-56
2023/07/04 06:52:07;;;;;;;6.60;3.70;;;;;;;39.00;23.67;100161.38;102450;278;119682;-55
2023/07/04 06:54:43;;;;;;;7.30;4.90;;;;;;;38.87;23.88;100160.74;102486;278;104036;-56
2023/07/04 06:57:22;;;;;;;6.90;4.60;;;;;;;39.23;23.69;100162.23;102507;278;114494;-56
2023/07/04 06:59:59;;;;;;;7.30;4.10;;;;;;;39.69;23.18;100164.98;102573;278;93726;-55
2023/07/04 07:02:42;;;;;;;5.20;3.60;;;;;;;39.76;22.67;100167.55;102568;279;98096;-55
2023/07/04 07:05:20;;;;;;;6.30;3.80;;;;;;;39.90;21.76;100170.98;102331;280;120851;-56
2023/07/04 07:07:57;;;;;;;9.00;3.90;;;;;;;40.07;21.50;100170.58;102524;278;104650;-58
2023/07/04 07:10:36;;;;;;;7.30;4.20;;;;;;;39.94;22.02;100174.33;102578;279;114355;-56
2023/07/04 07:13:12;;;;;;;6.90;3.70;;;;;;;40.28;22.14;100172.74;102555;278;94181;-57
2023/07/04 07:15:47;;;;;;;7.20;3.70;;;;;;;40.41;21.69;100172.02;102570;279;97449;-56
2023/07/04 07:18:32;;;;;;;6.20;3.60;;;;;;;40.29;21.19;100173.31;102378;279;119205;-55
2023/07/04 07:21:08;;;;;;;7.60;4.10;;;;;;;40.39;21.10;100170.14;102504;279;106488;-56
2023/07/04 07:23:46;;;;;;;9.20;4.60;;;;;;;40.32;20.93;100163.45;102607;279;114484;-56
2023/07/04 07:26:33;;;;;;;7.50;4.10;;;;;;;40.16;21.09;100167.73;102525;279;94085;-55
2023/07/04 07:29:10;;;;;;;8.60;4.20;;;;;;;40.36;20.59;100162.84;102561;279;97544;-56
2023/07/04 07:31:50;;;;;;;7.10;3.70;;;;;;;40.59;20.02;100165.42;102314;269;120499;-56
2023/07/04 07:34:26;;;;;;;6.70;3.80;;;;;;;40.77;19.47;100166.31;102461;279;104265;-57
2023/07/04 07:37:04;;;;;;;7.80;3.70;;;;;;;40.69;19.71;100161.27;102528;279;114368;-58
2023/07/04 07:39:44;;;;;;;6.90;3.90;;;;;;;40.49;20.21;100158.24;102537;278;95137;-56
2023/07/04 07:42:29;;;;;;;6.30;3.60;;;;;;;40.84;19.72;100154.77;102502;279;98050;-57
2023/07/04 07:45:07;;;;;;;10.70;3.80;;;;;;;41.02;19.54;100151.96;102516;279;120838;-56
2023/07/04 07:47:42;;;;;;;5.70;4.10;;;;;;;41.07;19.56;100150.02;102529;279;105403;-56
2023/07/04 07:50:20;;;;;;;7.30;4.00;;;;;;;41.21;19.48;100149.81;102547;279;112549;-55
2023/07/04 07:52:59;;;;;;;6.50;3.70;;;;;;;41.18;18.89;100150.54;102528;267;94431;-56
2023/07/04 07:55:45;;;;;;;4.90;3.30;;;;;;;41.32;18.84;100148.80;102559;279;97569;-56
2023/07/04 07:58:25;;;;;;;4.20;3.40;;;;;;;41.35;18.92;100153.12;102577;279;120772;-56
2023/07/04 08:01:11;;;;;;;6.60;4.50;;;;;;;41.41;18.76;100152.07;102577;279;104976;-57
2023/07/04 08:03:49;;;;;;;6.10;3.90;;;;;;;41.20;18.69;100147.32;102561;279;114145;-56
2023/07/04 08:06:30;;;;;;;6.30;4.40;;;;;;;41.17;18.76;100144.14;102558;279;94527;-56
2023/07/04 08:09:08;;;;;;;7.40;5.10;;;;;;;41.24;18.52;100146.74;102559;279;97606;-57
2023/07/04 08:11:46;;;;;;;7.00;5.40;;;;;;;41.23;17.73;100145.77;102540;279;120526;-57
2023/07/04 08:14:25;;;;;;;9.10;5.90;;;;;;;41.01;17.55;100141.58;102577;271;106289;-58
2023/07/04 08:17:07;;;;;;;8.90;5.50;;;;;;;40.68;18.00;100141.03;102503;279;115337;-59
2023/07/04 08:19:46;;;;;;;6.80;5.30;;;;;;;40.73;18.46;100139.43;102547;279;93979;-57
2023/07/04 08:22:26;;;;;;;8.40;5.50;;;;;;;40.92;18.32;100135.14;102486;279;98219;-56
2023/07/04 08:25:06;;;;;;;7.30;5.60;;;;;;;40.87;18.01;100130.35;102510;279;120954;-57
2023/07/04 08:27:48;;;;;;;6.40;5.30;;;;;;;40.92;18.23;100133.45;102428;279;105865;-56
2023/07/04 08:30:29;;;;;;;6.50;5.00;;;;;;;40.83;18.00;100135.91;102542;279;114433;-59
2023/07/04 08:33:17;;;;;;;6.60;5.40;;;;;;;40.89;17.99;100140.08;102536;279;94017;-58
2023/07/04 08:36:10;;;;;;;5.20;4.60;;;;;;;40.76;18.14;100142.52;102597;279;98197;-59
2023/07/04 08:38:48;;;;;;;5.60;5.00;;;;;;;40.74;18.47;100138.87;102556;279;120031;-57
2023/07/04 08:41:46;;;;;;;6.50;4.70;;;;;;;40.54;18.16;100141.59;102576;279;104904;-58
2023/07/04 08:44:23;;;;;;;8.00;4.80;;;;;;;40.67;17.96;100139.33;102539;279;115263;-57
2023/07/04 08:47:05;;;;;;;6.60;4.40;;;;;;;40.55;18.40;100139.43;102504;279;93832;-56
2023/07/04 08:49:51;;;;;;;5.80;4.10;;;;;;;40.60;17.91;100138.33;102526;279;97209;-55
2023/07/04 08:52:38;;;;;;;6.50;4.90;;;;;;;40.55;18.07;100135.14;102502;279;120948;-55
2023/07/04 08:55:15;;;;;;;6.70;4.20;;;;;;;40.30;18.00;100131.90;102598;279;105962;-54
2023/07/04 08:57:55;;;;;;;7.20;5.20;;;;;;;40.06;18.20;100130.61;102543;279;115492;-56
2023/07/04 09:00:35;;;;;;;7.80;4.60;;;;;;;39.71;18.48;100132.43;102514;279;93770;-57
2023/07/04 09:03:29;;;;;;;6.60;4.60;;;;;;;38.85;18.76;100128.17;102522;279;96521;-57
2023/07/04 09:06:15;;;;;;;5.00;4.30;;;;;;;38.44;18.90;100131.74;102481;279;119484;-56
2023/07/04 09:09:06;;;;;;;6.30;3.60;;;;;;;37.67;18.96;100126.98;102522;279;103568;-56
2023/07/04 09:11:43;;;;;;;5.90;3.60;;;;;;;36.90;19.47;100123.11;102450;279;114601;-55
2023/07/04 09:14:25;;;;;;;6.30;3.90;;;;;;;36.48;20.31;100122.02;102538;279;93501;-57
2023/07/04 09:17:13;;;;;;;5.40;3.70;;;;;;;36.06;21.10;100129.17;102508;278;96814;-58
2023/07/04 09:19:49;;;;;;;5.80;4.00;;;;;;;35.52;21.23;100123.41;102384;279;118647;-57
2023/07/04 09:22:29;;;;;;;6.30;4.20;;;;;;;35.30;21.74;100124.02;102530;279;104976;-57
2023/07/04 09:25:09;;;;;;;6.80;4.00;;;;;;;35.16;22.41;100124.19;102493;267;113642;-55
2023/07/04 09:27:45;;;;;;;5.20;4.10;;;;;;;35.05;22.31;100116.65;102541;278;93424;-55
2023/07/04 09:30:27;;;;;;;6.80;4.10;;;;;;;34.73;22.50;100118.05;102574;278;96796;-56
2023/07/04 09:33:09;;;;;;;5.50;3.70;;;;;;;34.43;22.82;100115.31;102521;278;120397;-57
2023/07/04 09:35:51;;;;;;;6.00;3.50;;;;;;;34.22;22.99;100111.31;102542;278;104172;-57
2023/07/04 09:38:27;;;;;;;6.40;3.80;;;;;;;33.91;23.34;100110.87;102539;278;114837;-57
2023/07/04 09:41:02;;;;;;;7.60;4.40;;;;;;;33.67;23.63;100110.96;102501;278;94453;-57
2023/07/04 09:43:40;;;;;;;6.00;3.60;;;;;;;33.49;24.19;100111.38;102574;279;98288;-56
2023/07/04 09:46:25;;;;;;;6.90;3.80;;;;;;;33.45;24.39;100113.30;102456;278;122040;-56
2023/07/04 09:49:22;;;;;;;7.50;4.30;;;;;;;33.52;24.22;100112.42;102562;278;104548;-57
2023/07/04 09:52:06;;;;;;;8.40;4.40;;;;;;;33.31;23.78;100112.48;102404;279;113215;-59
2023/07/04 09:54:48;;;;;;;7.70;4.10;;;;;;;33.05;24.23;100113.58;102573;279;95013;-56
2023/07/04 09:57:32;;;;;;;9.30;4.20;;;;;;;33.09;24.64;100115.90;102492;278;97527;-54
2023/07/04 10:00:23;;;;;;;6.40;3.70;;;;;;;33.12;24.94;100115.04;102504;278;121134;-56
2023/07/04 10:03:10;;;;;;;7.90;4.00;;;;;;;33.18;25.24;100121.17;102536;278;104279;-56
2023/07/04 10:05:56;;;;;;;6.10;3.20;;;;;;;33.24;24.94;100120.36;102580;279;112156;-57
2023/07/04 10:08:51;;;;;;;7.50;4.10;;;;;;;33.16;24.68;100118.52;102562;278;94876;-57
2023/07/04 10:11:39;;;;;;;7.20;3.50;;;;;;;32.96;24.80;100118.13;102523;278;97580;-56
2023/07/04 10:14:36;;;;;;;8.80;3.80;;;;;;;32.63;24.48;100111.19;102569;279;120385;-58
2023/07/04 10:17:31;;;;;;;7.40;4.40;;;;;;;32.54;25.07;100109.13;102520;279;105999;-59
2023/07/04 10:20:15;;;;;;;6.40;4.00;;;;;;;32.47;24.97;100116.41;102581;279;116112;-57
2023/07/04 10:22:53;;;;;;;7.70;3.90;;;;;;;32.31;25.34;100111.64;102522;278;93703;-57
2023/07/04 10:25:38;;;;;;;6.60;3.80;;;;;;;32.41;25.26;100107.48;102588;278;96938;-55
2023/07/04 10:28:17;;;;;;;6.70;3.90;;;;;;;32.47;25.04;100112.75;102530;278;120313;-56
2023/07/04 10:31:01;;;;;;;7.80;3.80;;;;;;;32.22;24.85;100105.61;102502;279;104846;-56
2023/07/04 10:33:47;;;;;;;6.60;4.50;;;;;;;32.15;24.95;100104.15;102526;278;114545;-57
2023/07/04 10:36:27;;;;;;;7.30;4.20;;;;;;;31.97;25.26;100097.80;102531;278;93302;-56
2023/07/04 10:39:09;;;;;;;6.70;4.20;;;;;;;32.01;25.76;100094.94;102566;278;98352;-57
2023/07/04 10:41:55;;;;;;;9.20;5.10;;;;;;;32.04;25.76;100094.70;102513;278;120634;-58
2023/07/04 10:44:33;;;;;;;8.20;4.40;;;;;;;32.09;25.86;100094.41;102580;278;105285;-55
2023/07/04 10:47:21;;;;;;;9.80;4.30;;;;;;;32.14;25.70;100096.13;102527;278;114642;-56
2023/07/04 10:50:01;;;;;;;10.20;4.30;;;;;;;31.94;25.78;100098.48;102562;278;94776;-55
2023/07/04 10:52:38;;;;;;;7.50;4.20;;;;;;;32.05;25.99;100097.23;102565;278;97677;-56
2023/07/04 10:55:21;;;;;;;10.10;4.00;;;;;;;32.13;26.05;100098.95;102544;279;120689;-56
2023/07/04 10:58:10;;;;;;;8.50;4.20;;;;;;;32.22;25.93;100109.50;102537;278;105337;-56
2023/07/04 11:00:53;;;;;;;6.70;4.70;;;;;;;32.19;25.64;100102.29;102529;279;114827;-56
2023/07/04 11:03:41;;;;;;;6.50;4.50;;;;;;;32.06;25.48;100100.76;102547;279;95272;-56
2023/07/04 11:06:29;;;;;;;7.70;4.50;;;;;;;32.01;25.71;100097.83;102420;280;97762;-56
2023/07/04 11:09:10;;;;;;;11.30;4.90;;;;;;;31.94;25.46;100094.73;102562;278;120275;-57
2023/07/04 11:11:49;;;;;;;9.40;4.70;;;;;;;31.87;25.54;100095.56;102505;278;106408;-56
2023/07/04 11:14:28;;;;;;;7.80;4.90;;;;;;;31.89;26.01;100093.08;102552;279;113700;-56
2023/07/04 11:17:08;;;;;;;6.40;4.10;;;;;;;31.86;26.23;100090.27;102509;279;94239;-56
2023/07/04 11:19:58;;;;;;;6.40;4.30;;;;;;;31.85;26.18;100083.60;102403;279;97685;-56
2023/07/04 11:22:57;;;;;;;8.30;4.50;;;;;;;31.85;25.96;100084.17;102522;279;120685;-56
2023/07/04 11:26:07;;;;;;;7.90;5.50;;;;;;;31.85;26.47;100076.73;102546;279;105479;-56
2023/07/04 11:29:06;;;;;;;8.40;5.00;;;;;;;31.82;26.46;100080.67;102516;279;113953;-56
2023/07/04 11:32:19;;;;;;;7.30;5.10;;;;;;;31.81;25.92;100083.11;102551;279;93315;-57
2023/07/04 11:35:17;;;;;;;7.60;4.70;;;;;;;31.77;26.22;100074.73;102520;279;97612;-58
2023/07/04 11:38:02;;;;;;;8.00;4.70;;;;;;;31.77;26.55;100078.40;102510;279;120230;-56
2023/07/04 11:40:51;;;;;;;8.30;4.50;;;;;;;31.84;26.35;100079.90;102544;279;106056;-57
2023/07/04 11:43:36;;;;;;;10.20;4.90;;;;;;;31.85;26.61;100074.34;102128;279;114192;-57
2023/07/04 11:46:24;;;;;;;6.40;4.60;;;;;;;31.81;26.43;100068.35;102489;279;93467;-56
2023/07/04 11:49:00;;;;;;;7.40;4.60;;;;;;;31.76;26.43;100076.11;102422;279;96639;-56
2023/07/04 11:51:40;;;;;;;8.00;5.30;;;;;;;31.61;25.92;100081.48;102550;278;120449;-56
2023/07/04 11:54:17;;;;;;;8.30;5.40;;;;;;;31.34;25.62;100076.65;102594;279;105482;-56
2023/07/04 11:56:54;;;;;;;7.20;5.50;;;;;;;31.21;25.85;100075.95;102533;279;114548;-56
2023/07/04 11:59:46;;;;;;;7.80;5.10;;;;;;;31.01;25.79;100077.56;102575;279;93023;-57
2023/07/04 12:02:33;;;;;;;10.80;5.20;;;;;;;30.81;25.84;100072.79;102585;279;97366;-56
2023/07/04 12:05:43;;;;;;;7.50;5.20;;;;;;;30.76;26.00;100065.21;102543;279;120684;-57
2023/07/04 12:08:32;;;;;;;9.40;6.20;;;;;;;30.84;26.20;100063.98;102499;279;106014;-57
2023/07/04 12:11:22;;;;;;;14.00;9.70;;;;;;;30.89;26.40;100065.31;102540;279;114671;-56
2023/07/04 12:14:06;;;;;;;10.60;6.90;;;;;;;30.93;26.16;100060.90;102293;279;94253;-56
2023/07/04 12:16:44;;;;;;;8.30;6.20;;;;;;;30.90;25.88;100057.55;102507;279;96630;-56
2023/07/04 12:19:24;;;;;;;10.90;6.20;;;;;;;30.71;25.85;100053.80;102531;279;120670;-57
2023/07/04 12:22:13;;;;;;;;;;;;;;;30.69;26.22;100061.01;102511;279;106238;-57